Alpena, Michigan
Current Conditions -  °F | °C
As of 1:54 AM on Saturday 25 Oct 2014 (Local Time) from KAPN Reporting Station
Clear Clear  
Wind Chill: 44°   Ceiling: Unl
Heat Index: 46°   Visibility: 7mi
Dew Point: 45°   Wind: 5mph
Humidity: 96%   Direction: 220°SW
Pressure: 29.81"   Gusts: NA
Location:  45.06°N, 83.44°W
Report Text: KAPN 250554Z AUTO 22004KT 7SM CLR 08/07 A2981 RMK AO2 SLP097 T00780072 10117 20028 58023
Loading
Personal Weather Stations






























Interactive Weather Map
Tropical Storm Tracking
New forecast layout! Learn more

10-Day Weather Forecast

Advertisements
Track Severe Weather on mobile